createdAt,value
2023-02-11T00:00:37.728Z,0.00
2023-02-11T00:01:37.715Z,0.00
2023-02-11T00:02:37.690Z,0.00
2023-02-11T00:03:37.755Z,0.00
2023-02-11T00:04:37.668Z,0.00
2023-02-11T00:05:37.657Z,0.00
2023-02-11T00:06:37.685Z,0.00
2023-02-11T00:07:37.632Z,0.00
2023-02-11T00:08:37.633Z,0.00
2023-02-11T00:09:37.627Z,0.00
2023-02-11T00:10:37.600Z,0.00
2023-02-11T00:11:37.597Z,0.00
2023-02-11T00:12:37.580Z,0.00
2023-02-11T00:13:37.594Z,0.00
2023-02-11T00:14:37.561Z,0.00
2023-02-11T00:15:37.552Z,0.00
2023-02-11T00:16:37.568Z,0.00
2023-02-11T00:17:37.525Z,0.00
2023-02-11T00:18:37.515Z,0.00
2023-02-11T00:19:37.514Z,0.00
2023-02-11T00:20:37.489Z,0.00
2023-02-11T00:21:37.485Z,0.00
2023-02-11T00:22:37.494Z,0.00
2023-02-11T00:23:37.456Z,0.00
2023-02-11T00:24:37.445Z,0.00
2023-02-11T00:25:37.433Z,0.00
2023-02-11T00:26:37.430Z,0.00
2023-02-11T00:27:37.421Z,0.00
2023-02-11T00:28:37.405Z,0.00
2023-02-11T00:29:37.387Z,0.00
2023-02-11T00:30:37.508Z,0.00
2023-02-11T00:31:37.565Z,0.00
2023-02-11T00:32:37.367Z,0.00
2023-02-11T00:33:37.380Z,0.00
2023-02-11T00:34:37.331Z,0.00
2023-02-11T00:35:37.314Z,0.00
2023-02-11T00:36:37.308Z,0.00
2023-02-11T00:37:37.298Z,0.00
2023-02-11T00:38:37.336Z,0.00
2023-02-11T00:39:37.276Z,0.00
2023-02-11T00:40:37.271Z,0.00
2023-02-11T00:41:37.259Z,0.00
2023-02-11T00:42:37.236Z,0.00
2023-02-11T00:43:37.231Z,0.00
2023-02-11T00:44:37.212Z,0.00
2023-02-11T00:45:37.207Z,0.00
2023-02-11T00:46:37.273Z,0.00
2023-02-11T00:47:37.214Z,0.00
2023-02-11T00:48:37.188Z,0.00
2023-02-11T00:49:37.154Z,0.00
2023-02-11T00:50:37.160Z,0.00
2023-02-11T00:51:37.137Z,0.00
2023-02-11T00:52:37.127Z,0.00
2023-02-11T00:53:37.108Z,0.00
2023-02-11T00:54:37.121Z,0.00
2023-02-11T00:55:37.088Z,0.00
2023-02-11T00:56:37.077Z,0.00
2023-02-11T00:57:37.074Z,0.00
2023-02-11T00:58:37.062Z,0.00
2023-02-11T00:59:37.056Z,0.00
2023-02-11T01:00:37.038Z,0.00
2023-02-11T01:01:37.072Z,0.00
2023-02-11T01:02:37.026Z,0.00
2023-02-11T01:03:37.003Z,0.00
2023-02-11T01:04:36.998Z,0.00
2023-02-11T01:05:37.133Z,0.00
2023-02-11T01:06:36.973Z,0.00
2023-02-11T01:07:36.966Z,0.00
2023-02-11T01:08:36.962Z,0.00
2023-02-11T01:09:36.938Z,0.00
2023-02-11T01:10:36.961Z,0.00
2023-02-11T01:11:36.925Z,0.00
2023-02-11T01:12:36.899Z,0.00
2023-02-11T01:13:36.887Z,0.00
2023-02-11T01:14:36.880Z,0.00
2023-02-11T01:15:36.926Z,0.00
2023-02-11T01:16:36.882Z,0.00
2023-02-11T01:17:36.854Z,0.00
2023-02-11T01:18:36.838Z,0.00
2023-02-11T01:19:36.822Z,0.00
2023-02-11T01:20:36.819Z,0.00
2023-02-11T01:21:36.805Z,0.00
2023-02-11T01:22:36.795Z,0.00
2023-02-11T01:23:36.778Z,0.00
2023-02-11T01:24:36.788Z,0.00
2023-02-11T01:25:36.757Z,0.00
2023-02-11T01:26:36.779Z,0.00
2023-02-11T01:27:36.730Z,0.00
2023-02-11T01:28:36.826Z,0.00
2023-02-11T01:29:36.721Z,0.00
2023-02-11T01:30:36.705Z,0.00
2023-02-11T01:31:36.813Z,0.00
2023-02-11T01:32:36.683Z,0.00
2023-02-11T01:33:36.676Z,0.00
2023-02-11T01:34:36.678Z,0.00
2023-02-11T01:35:36.645Z,0.00
2023-02-11T01:36:36.638Z,0.00
2023-02-11T01:37:36.625Z,0.00
2023-02-11T01:38:36.636Z,0.00
2023-02-11T01:39:36.602Z,0.00
2023-02-11T01:40:36.592Z,0.00
2023-02-11T01:41:36.586Z,0.00
2023-02-11T01:42:36.598Z,0.00
2023-02-11T01:43:36.576Z,0.00
2023-02-11T01:44:36.546Z,0.00
2023-02-11T01:45:36.529Z,0.00
2023-02-11T01:46:36.657Z,0.00
2023-02-11T01:47:36.514Z,0.00
2023-02-11T01:48:36.497Z,0.00
2023-02-11T01:49:36.618Z,0.00
2023-02-11T01:50:36.486Z,0.00
2023-02-11T01:51:36.462Z,0.00
2023-02-11T01:52:36.457Z,0.00
2023-02-11T01:53:36.439Z,0.00
2023-02-11T01:54:36.439Z,0.00
2023-02-11T01:55:36.417Z,0.00
2023-02-11T01:56:36.404Z,0.00
2023-02-11T01:57:36.407Z,0.00
2023-02-11T01:58:36.412Z,0.00
2023-02-11T01:59:36.373Z,0.00
2023-02-11T02:00:36.402Z,0.00
2023-02-11T02:01:36.375Z,0.00
2023-02-11T02:02:36.355Z,0.00
2023-02-11T02:03:36.401Z,0.00
2023-02-11T02:04:36.324Z,0.00
2023-02-11T02:05:36.303Z,0.00
2023-02-11T02:06:36.302Z,0.00
2023-02-11T02:07:36.292Z,0.00
2023-02-11T02:08:36.283Z,0.00
2023-02-11T02:09:36.266Z,0.00
2023-02-11T02:10:36.254Z,0.00
2023-02-11T02:11:36.249Z,0.00
2023-02-11T02:12:36.230Z,0.00
2023-02-11T02:13:36.226Z,0.00
2023-02-11T02:14:36.233Z,0.00
2023-02-11T02:15:36.195Z,0.00
2023-02-11T02:16:36.242Z,0.00
2023-02-11T02:17:36.167Z,0.00
2023-02-11T02:18:36.155Z,0.00
2023-02-11T02:19:36.157Z,0.00
2023-02-11T02:20:36.132Z,0.00
2023-02-11T02:21:36.123Z,0.00
2023-02-11T02:22:36.117Z,0.00
2023-02-11T02:23:36.106Z,0.00
2023-02-11T02:24:36.101Z,0.00
2023-02-11T02:25:36.080Z,0.00
2023-02-11T02:26:36.065Z,0.00
2023-02-11T02:27:36.080Z,0.00
2023-02-11T02:28:36.050Z,0.00
2023-02-11T02:29:36.031Z,0.00
2023-02-11T02:30:36.071Z,0.00
2023-02-11T02:31:36.054Z,0.00
2023-02-11T02:32:35.993Z,0.00
2023-02-11T02:33:35.983Z,0.00
2023-02-11T02:34:35.984Z,0.00
2023-02-11T02:35:35.968Z,0.00
2023-02-11T02:36:35.956Z,0.00
2023-02-11T02:37:35.940Z,0.00
2023-02-11T02:38:35.932Z,0.00
2023-02-11T02:39:35.920Z,0.00
2023-02-11T02:40:35.920Z,0.00
2023-02-11T02:41:35.905Z,0.00
2023-02-11T02:42:35.883Z,0.00
2023-02-11T02:43:35.876Z,0.00
2023-02-11T02:44:35.872Z,0.00
2023-02-11T02:45:35.856Z,0.00
2023-02-11T02:46:35.897Z,0.00
2023-02-11T02:47:35.827Z,0.00
2023-02-11T02:48:35.869Z,0.00
2023-02-11T02:49:35.817Z,0.00
2023-02-11T02:50:35.792Z,0.00
2023-02-11T02:51:35.784Z,0.00
2023-02-11T02:52:35.776Z,0.00
2023-02-11T02:53:35.767Z,0.00
2023-02-11T02:54:35.757Z,0.00
2023-02-11T02:55:35.749Z,0.00
2023-02-11T02:56:35.733Z,0.00
2023-02-11T02:57:35.722Z,0.00
2023-02-11T02:58:35.711Z,0.00
2023-02-11T02:59:35.704Z,0.00
2023-02-11T03:00:35.783Z,0.00
2023-02-11T03:01:35.674Z,0.00
2023-02-11T03:02:35.719Z,0.00
2023-02-11T03:03:35.715Z,0.00
2023-02-11T03:04:35.642Z,0.00
2023-02-11T03:05:35.638Z,0.00
2023-02-11T03:06:35.624Z,0.00
2023-02-11T03:07:35.616Z,0.00
2023-02-11T03:08:35.598Z,0.00
2023-02-11T03:09:35.585Z,0.00
2023-02-11T03:10:35.570Z,0.00
2023-02-11T03:11:35.570Z,0.00
2023-02-11T03:12:35.556Z,0.00
2023-02-11T03:13:35.579Z,0.00
2023-02-11T03:14:35.570Z,0.00
2023-02-11T03:15:35.515Z,0.00
2023-02-11T03:16:35.547Z,0.00
2023-02-11T03:17:35.498Z,0.00
2023-02-11T03:18:35.505Z,0.00
2023-02-11T03:19:35.484Z,0.00
2023-02-11T03:20:35.467Z,0.00
2023-02-11T03:21:35.453Z,0.00
2023-02-11T03:22:35.441Z,0.00
2023-02-11T03:23:35.424Z,0.00
2023-02-11T03:24:35.422Z,0.00
2023-02-11T03:25:35.408Z,0.00
2023-02-11T03:26:35.398Z,0.00
2023-02-11T03:27:35.385Z,0.00
2023-02-11T03:28:35.465Z,0.00
2023-02-11T03:29:35.357Z,0.00
2023-02-11T03:30:35.363Z,0.00
2023-02-11T03:31:35.447Z,0.00
2023-02-11T03:32:35.331Z,0.00
2023-02-11T03:33:35.320Z,0.00
2023-02-11T03:34:35.431Z,0.00
2023-02-11T03:35:35.308Z,0.00
2023-02-11T03:36:35.285Z,0.00
2023-02-11T03:37:35.267Z,0.00
2023-02-11T03:38:35.255Z,0.00
2023-02-11T03:39:35.250Z,0.00
2023-02-11T03:40:35.262Z,0.00
2023-02-11T03:41:35.227Z,0.00
2023-02-11T03:42:35.220Z,0.00
2023-02-11T03:43:35.205Z,0.00
2023-02-11T03:44:35.194Z,0.00
2023-02-11T03:45:35.229Z,0.00
2023-02-11T03:46:35.169Z,0.00
2023-02-11T03:47:35.155Z,0.00
2023-02-11T03:48:35.156Z,0.00
2023-02-11T03:49:35.144Z,0.00
2023-02-11T03:50:35.185Z,0.00
2023-02-11T03:51:35.123Z,0.00
2023-02-11T03:52:35.098Z,0.00
2023-02-11T03:53:35.101Z,0.00
2023-02-11T03:54:35.087Z,0.00
2023-02-11T03:55:35.084Z,0.00
2023-02-11T03:56:35.056Z,0.00
2023-02-11T03:57:35.049Z,0.00
2023-02-11T03:58:35.036Z,0.00
2023-02-11T03:59:35.025Z,0.00
2023-02-11T04:00:35.028Z,0.00
2023-02-11T04:01:35.091Z,0.00
2023-02-11T04:02:34.993Z,0.00
2023-02-11T04:03:35.014Z,0.00
2023-02-11T04:04:34.966Z,0.00
2023-02-11T04:05:34.960Z,0.00
2023-02-11T04:06:34.975Z,0.00
2023-02-11T04:07:34.941Z,0.00
2023-02-11T04:08:34.928Z,0.00
2023-02-11T04:09:34.922Z,0.00
2023-02-11T04:10:34.913Z,0.00
2023-02-11T04:11:34.890Z,0.00
2023-02-11T04:12:34.891Z,0.00
2023-02-11T04:13:34.864Z,0.00
2023-02-11T04:14:34.855Z,0.00
2023-02-11T04:15:34.863Z,0.00
2023-02-11T04:16:34.928Z,0.00
2023-02-11T04:17:34.824Z,0.00
2023-02-11T04:18:34.923Z,0.00
2023-02-11T04:19:34.809Z,0.00
2023-02-11T04:20:34.799Z,0.00
2023-02-11T04:21:34.808Z,0.00
2023-02-11T04:22:34.796Z,0.00
2023-02-11T04:23:34.761Z,0.00
2023-02-11T04:24:34.741Z,0.00
2023-02-11T04:25:34.738Z,0.00
2023-02-11T04:26:34.728Z,0.00
2023-02-11T04:27:34.727Z,0.00
2023-02-11T04:28:34.747Z,0.00
2023-02-11T04:29:34.693Z,0.00
2023-02-11T04:30:34.685Z,0.00
2023-02-11T04:31:34.773Z,0.00
2023-02-11T04:32:34.657Z,0.00
2023-02-11T04:33:34.652Z,0.00
2023-02-11T04:34:34.634Z,0.00
2023-02-11T04:35:34.635Z,0.00
2023-02-11T04:36:34.621Z,0.00
2023-02-11T04:37:34.604Z,0.00
2023-02-11T04:38:34.622Z,0.00
2023-02-11T04:39:34.585Z,0.00
2023-02-11T04:40:34.579Z,0.00
2023-02-11T04:41:34.575Z,0.00
2023-02-11T04:42:34.557Z,0.00
2023-02-11T04:43:34.543Z,0.00
2023-02-11T04:44:34.530Z,0.00
2023-02-11T04:45:34.537Z,0.00
2023-02-11T04:46:34.504Z,0.00
2023-02-11T04:47:34.494Z,0.00
2023-02-11T04:48:34.483Z,0.00
2023-02-11T04:49:34.475Z,0.00
2023-02-11T04:50:34.467Z,0.00
2023-02-11T04:51:34.472Z,0.00
2023-02-11T04:52:34.452Z,0.00
2023-02-11T04:53:34.428Z,0.00
2023-02-11T04:54:34.455Z,0.00
2023-02-11T04:55:34.407Z,0.00
2023-02-11T04:56:34.402Z,0.00
2023-02-11T04:57:34.392Z,0.00
2023-02-11T04:58:34.375Z,0.00
2023-02-11T04:59:34.376Z,0.00
2023-02-11T05:00:34.359Z,0.00
2023-02-11T05:01:34.363Z,0.00
2023-02-11T05:02:34.337Z,0.00
2023-02-11T05:03:34.320Z,0.00
2023-02-11T05:04:34.344Z,0.00
2023-02-11T05:05:34.299Z,0.00
2023-02-11T05:06:34.292Z,0.00
2023-02-11T05:07:34.279Z,0.00
2023-02-11T05:08:34.281Z,0.00
2023-02-11T05:09:34.254Z,0.00
2023-02-11T05:10:34.274Z,0.00
2023-02-11T05:11:34.239Z,0.00
2023-02-11T05:12:34.226Z,0.00
2023-02-11T05:13:34.215Z,0.00
2023-02-11T05:14:34.205Z,0.00
2023-02-11T05:15:34.193Z,0.00
2023-02-11T05:16:34.244Z,0.00
2023-02-11T05:17:34.177Z,0.00
2023-02-11T05:18:34.168Z,0.00
2023-02-11T05:19:34.165Z,0.00
2023-02-11T05:20:34.133Z,0.00
2023-02-11T05:21:34.123Z,0.00
2023-02-11T05:22:34.122Z,0.00
2023-02-11T05:23:34.113Z,0.00
2023-02-11T05:24:34.096Z,0.00
2023-02-11T05:25:34.084Z,0.00
2023-02-11T05:26:34.101Z,0.00
2023-02-11T05:27:34.056Z,0.00
2023-02-11T05:28:34.129Z,0.00
2023-02-11T05:29:34.046Z,0.00
2023-02-11T05:30:34.104Z,0.00
2023-02-11T05:31:34.021Z,0.00
2023-02-11T05:32:34.010Z,0.00
2023-02-11T05:33:33.988Z,0.00
2023-02-11T05:34:33.999Z,0.00
2023-02-11T05:35:33.975Z,0.00
2023-02-11T05:36:33.961Z,0.00
2023-02-11T05:37:33.986Z,0.00
2023-02-11T05:38:33.952Z,0.00
2023-02-11T05:39:33.928Z,0.00
2023-02-11T05:40:33.921Z,0.00
2023-02-11T05:41:33.903Z,0.00
2023-02-11T05:42:33.922Z,0.00
2023-02-11T05:43:33.880Z,0.00
2023-02-11T05:44:33.870Z,0.00
2023-02-11T05:45:33.880Z,0.00
2023-02-11T05:46:33.897Z,0.00
2023-02-11T05:47:33.853Z,0.00
2023-02-11T05:48:33.829Z,0.00
2023-02-11T05:49:33.816Z,0.00
2023-02-11T05:50:33.803Z,0.00
2023-02-11T05:51:33.796Z,0.00
2023-02-11T05:52:33.783Z,0.00
2023-02-11T05:53:33.779Z,0.00
2023-02-11T05:54:33.776Z,0.00
2023-02-11T05:55:33.753Z,0.00
2023-02-11T05:56:33.745Z,0.00
2023-02-11T05:57:33.729Z,0.00
2023-02-11T05:58:33.739Z,0.00
2023-02-11T05:59:33.718Z,0.00
2023-02-11T06:00:33.715Z,0.00
2023-02-11T06:01:33.692Z,0.00
2023-02-11T06:02:33.781Z,0.00
2023-02-11T06:03:33.701Z,0.00
2023-02-11T06:04:33.659Z,0.00
2023-02-11T06:05:33.645Z,0.00
2023-02-11T06:06:33.636Z,0.00
2023-02-11T06:07:33.626Z,0.00
2023-02-11T06:08:33.616Z,0.00
2023-02-11T06:09:33.597Z,0.00
2023-02-11T06:10:33.596Z,0.00
2023-02-11T06:11:33.600Z,4.00
2023-02-11T06:12:33.570Z,4.00
2023-02-11T06:13:33.554Z,4.00
2023-02-11T06:14:33.579Z,4.00
2023-02-11T06:15:33.532Z,4.00
2023-02-11T06:16:33.541Z,4.00
2023-02-11T06:17:33.531Z,0.00
2023-02-11T06:18:33.507Z,4.00
2023-02-11T06:19:33.497Z,4.00
2023-02-11T06:20:33.478Z,4.00
2023-02-11T06:21:43.335Z,4.00
2023-02-11T06:22:34.940Z,4.00
2023-02-11T06:23:33.447Z,4.00
2023-02-11T06:24:55.007Z,8.00
2023-02-11T06:25:33.432Z,8.00
2023-02-11T06:26:33.413Z,8.00
2023-02-11T06:27:33.412Z,12.00
2023-02-11T06:28:33.523Z,16.00
2023-02-11T06:29:33.380Z,12.00
2023-02-11T06:30:33.420Z,16.00
2023-02-11T06:31:33.512Z,16.00
2023-02-11T06:32:44.038Z,16.00
2023-02-11T06:33:33.354Z,16.00
2023-02-11T06:34:35.333Z,20.00
2023-02-11T06:35:33.317Z,24.00
2023-02-11T06:36:35.305Z,24.00
2023-02-11T06:37:33.301Z,24.00
2023-02-11T06:38:33.285Z,32.00
2023-02-11T06:39:33.273Z,40.00
2023-02-11T06:40:33.271Z,32.00
2023-02-11T06:41:33.252Z,36.00
2023-02-11T06:42:33.242Z,40.00
2023-02-11T06:43:33.242Z,44.00
2023-02-11T06:44:33.222Z,48.00
2023-02-11T06:45:33.215Z,44.00
2023-02-11T06:46:33.325Z,48.00
2023-02-11T06:47:33.194Z,44.00
2023-02-11T06:48:35.174Z,40.00
2023-02-11T06:49:33.173Z,40.00
2023-02-11T06:50:33.178Z,44.00
2023-02-11T06:51:33.146Z,48.00
2023-02-11T06:52:33.140Z,52.00
2023-02-11T06:53:33.129Z,40.00
2023-02-11T06:54:33.112Z,40.00
2023-02-11T06:55:33.119Z,44.00
2023-02-11T06:56:33.090Z,48.00
2023-02-11T06:57:33.091Z,52.00
2023-02-11T06:58:35.082Z,52.00
2023-02-11T06:59:33.056Z,56.00
2023-02-11T07:00:33.047Z,56.00
2023-02-11T07:01:35.105Z,56.00
2023-02-11T07:02:33.077Z,72.00
2023-02-11T07:03:33.019Z,60.00
2023-02-11T07:04:33.035Z,68.00
2023-02-11T07:05:33.111Z,68.00
2023-02-11T07:06:32.981Z,64.00
2023-02-11T07:07:34.300Z,68.00
2023-02-11T07:08:32.967Z,76.00
2023-02-11T07:09:32.951Z,84.00
2023-02-11T07:10:34.940Z,108.00
2023-02-11T07:11:32.937Z,92.00
2023-02-11T07:12:32.915Z,100.00
2023-02-11T07:13:32.913Z,100.00
2023-02-11T07:14:32.894Z,96.00
2023-02-11T07:15:32.882Z,124.00
2023-02-11T07:16:34.928Z,108.00
2023-02-11T07:17:32.867Z,124.00
2023-02-11T07:18:32.883Z,128.00
2023-02-11T07:19:32.844Z,120.00
2023-02-11T07:20:32.828Z,140.00
2023-02-11T07:21:32.830Z,168.00
2023-02-11T07:22:32.809Z,156.00
2023-02-11T07:23:32.793Z,164.00
2023-02-11T07:24:32.791Z,176.00
2023-02-11T07:25:32.773Z,172.00
2023-02-11T07:26:32.772Z,164.00
2023-02-11T07:27:32.756Z,184.00
2023-02-11T07:28:32.842Z,184.00
2023-02-11T07:29:32.737Z,172.00
2023-02-11T07:30:32.730Z,200.00
2023-02-11T07:31:32.838Z,256.00
2023-02-11T07:32:32.701Z,388.00
2023-02-11T07:33:32.696Z,312.00
2023-02-11T07:34:32.757Z,328.00
2023-02-11T07:35:32.675Z,320.00
2023-02-11T07:36:32.664Z,392.00
2023-02-11T07:37:32.655Z,368.00
2023-02-11T07:38:32.653Z,276.00
2023-02-11T07:39:32.618Z,260.00
2023-02-11T07:40:32.618Z,280.00
2023-02-11T07:41:32.604Z,336.00
2023-02-11T07:42:32.596Z,276.00
2023-02-11T07:43:32.589Z,328.00
2023-02-11T07:44:32.565Z,300.00
2023-02-11T07:45:32.558Z,288.00
2023-02-11T07:46:32.730Z,360.00
2023-02-11T07:47:32.529Z,356.00
2023-02-11T07:48:32.527Z,440.00
2023-02-11T07:49:32.523Z,432.00
2023-02-11T07:50:32.520Z,368.00
2023-02-11T07:51:32.514Z,388.00
2023-02-11T07:52:32.479Z,360.00
2023-02-11T07:53:32.470Z,276.00
2023-02-11T07:54:32.459Z,312.00
2023-02-11T07:55:32.439Z,268.00
2023-02-11T07:56:32.435Z,244.00
2023-02-11T07:57:32.422Z,252.00
2023-02-11T07:58:32.413Z,280.00
2023-02-11T07:59:32.404Z,268.00
2023-02-11T08:00:32.382Z,220.00
2023-02-11T08:01:32.379Z,180.00
2023-02-11T08:02:32.478Z,192.00
2023-02-11T08:03:32.356Z,172.00
2023-02-11T08:04:32.344Z,192.00
2023-02-11T08:05:32.342Z,180.00
2023-02-11T08:06:32.353Z,176.00
2023-02-11T08:07:32.307Z,208.00
2023-02-11T08:08:32.292Z,224.00
2023-02-11T08:09:34.500Z,208.00
2023-02-11T08:10:32.276Z,252.00
2023-02-11T08:11:32.263Z,236.00
2023-02-11T08:12:32.254Z,248.00
2023-02-11T08:13:32.244Z,276.00
2023-02-11T08:14:32.224Z,312.00
2023-02-11T08:15:32.218Z,348.00
2023-02-11T08:16:32.257Z,356.00
2023-02-11T08:17:32.202Z,364.00
2023-02-11T08:18:32.183Z,312.00
2023-02-11T08:19:34.876Z,324.00
2023-02-11T08:20:32.159Z,324.00
2023-02-11T08:21:32.157Z,332.00
2023-02-11T08:22:32.160Z,380.00
2023-02-11T08:23:32.116Z,340.00
2023-02-11T08:24:32.128Z,336.00
2023-02-11T08:25:32.104Z,276.00
2023-02-11T08:26:32.093Z,280.00
2023-02-11T08:27:32.081Z,320.00
2023-02-11T08:28:32.166Z,328.00
2023-02-11T08:29:32.064Z,308.00
2023-02-11T08:30:32.053Z,304.00
2023-02-11T08:31:32.123Z,264.00
2023-02-11T08:32:32.018Z,284.00
2023-02-11T08:33:32.010Z,256.00
2023-02-11T08:34:32.002Z,296.00
2023-02-11T08:35:31.978Z,260.00
2023-02-11T08:36:31.966Z,240.00
2023-02-11T08:37:33.107Z,208.00
2023-02-11T08:38:31.971Z,192.00
2023-02-11T08:39:31.938Z,212.00
2023-02-11T08:40:31.921Z,244.00
2023-02-11T08:41:31.910Z,244.00
2023-02-11T08:42:31.903Z,328.00
2023-02-11T08:43:31.899Z,404.00
2023-02-11T08:44:31.882Z,400.00
2023-02-11T08:45:31.881Z,380.00
2023-02-11T08:46:31.964Z,292.00
2023-02-11T08:47:31.848Z,276.00
2023-02-11T08:48:31.838Z,308.00
2023-02-11T08:49:31.823Z,312.00
2023-02-11T08:50:31.814Z,248.00
2023-02-11T08:51:31.800Z,208.00
2023-02-11T08:52:31.785Z,232.00
2023-02-11T08:53:31.777Z,220.00
2023-02-11T08:54:31.785Z,192.00
2023-02-11T08:55:31.757Z,200.00
2023-02-11T08:56:31.772Z,348.00
2023-02-11T08:57:31.727Z,372.00
2023-02-11T08:58:31.730Z,420.00
2023-02-11T08:59:31.716Z,436.00
2023-02-11T09:00:31.697Z,428.00
2023-02-11T09:01:31.824Z,416.00
2023-02-11T09:02:31.753Z,400.00
2023-02-11T09:03:31.664Z,388.00
2023-02-11T09:04:31.654Z,352.00
2023-02-11T09:05:31.644Z,328.00
2023-02-11T09:06:31.625Z,412.00
2023-02-11T09:07:31.614Z,464.00
2023-02-11T09:08:31.615Z,416.00
2023-02-11T09:09:31.599Z,356.00
2023-02-11T09:10:31.612Z,356.00
2023-02-11T09:11:31.584Z,336.00
2023-02-11T09:12:31.563Z,348.00
2023-02-11T09:13:31.557Z,396.00
2023-02-11T09:14:31.543Z,336.00
2023-02-11T09:15:31.540Z,316.00
2023-02-11T09:16:31.548Z,332.00
2023-02-11T09:17:31.504Z,276.00
2023-02-11T09:18:31.492Z,256.00
2023-02-11T09:19:31.481Z,268.00
2023-02-11T09:20:31.471Z,288.00
2023-02-11T09:21:31.489Z,256.00
2023-02-11T09:22:31.455Z,252.00
2023-02-11T09:23:31.445Z,288.00
2023-02-11T09:24:31.428Z,344.00
2023-02-11T09:25:31.421Z,336.00
2023-02-11T09:26:31.449Z,292.00
2023-02-11T09:27:31.398Z,316.00
2023-02-11T09:28:31.410Z,308.00
2023-02-11T09:29:31.379Z,304.00
2023-02-11T09:30:31.496Z,336.00
2023-02-11T09:31:31.619Z,304.00
2023-02-11T09:32:31.344Z,300.00
2023-02-11T09:33:31.325Z,312.00
2023-02-11T09:34:31.320Z,272.00
2023-02-11T09:35:31.321Z,292.00
2023-02-11T09:36:31.294Z,312.00
2023-02-11T09:37:31.285Z,276.00
2023-02-11T09:38:31.268Z,288.00
2023-02-11T09:39:31.267Z,248.00
2023-02-11T09:40:31.245Z,228.00
2023-02-11T09:41:31.247Z,232.00
2023-02-11T09:42:31.252Z,324.00
2023-02-11T09:43:31.230Z,340.00
2023-02-11T09:44:31.223Z,328.00
2023-02-11T09:45:31.209Z,380.00
2023-02-11T09:46:31.296Z,360.00
2023-02-11T09:47:31.175Z,456.00
2023-02-11T09:48:31.153Z,492.00
2023-02-11T09:49:31.153Z,452.00
2023-02-11T09:50:31.151Z,444.00
2023-02-11T09:51:31.124Z,452.00
2023-02-11T09:52:31.120Z,412.00
2023-02-11T09:53:31.096Z,412.00
2023-02-11T09:54:31.087Z,424.00
2023-02-11T09:55:31.100Z,432.00
2023-02-11T09:56:31.061Z,416.00
2023-02-11T09:57:31.064Z,388.00
2023-02-11T09:58:31.065Z,392.00
2023-02-11T09:59:31.028Z,444.00
2023-02-11T10:00:31.025Z,412.00
2023-02-11T10:01:31.065Z,348.00
2023-02-11T10:02:31.017Z,352.00
2023-02-11T10:03:30.997Z,352.00
2023-02-11T10:04:31.128Z,408.00
2023-02-11T10:05:30.968Z,424.00
2023-02-11T10:06:30.955Z,420.00
2023-02-11T10:07:30.968Z,416.00
2023-02-11T10:08:30.935Z,432.00
2023-02-11T10:09:30.929Z,452.00
2023-02-11T10:10:30.914Z,436.00
2023-02-11T10:11:32.334Z,472.00
2023-02-11T10:12:30.897Z,444.00
2023-02-11T10:13:30.879Z,436.00
2023-02-11T10:14:30.897Z,424.00
2023-02-11T10:15:30.889Z,404.00
2023-02-11T10:16:30.846Z,428.00
2023-02-11T10:17:30.826Z,480.00
2023-02-11T10:18:30.822Z,440.00
2023-02-11T10:19:30.803Z,420.00
2023-02-11T10:20:30.793Z,396.00
2023-02-11T10:21:30.788Z,372.00
2023-02-11T10:22:30.780Z,304.00
2023-02-11T10:23:30.770Z,316.00
2023-02-11T10:24:30.752Z,364.00
2023-02-11T10:25:30.735Z,376.00
2023-02-11T10:26:30.730Z,400.00
2023-02-11T10:27:30.730Z,400.00
2023-02-11T10:28:30.773Z,380.00
2023-02-11T10:29:30.695Z,352.00
2023-02-11T10:30:30.748Z,364.00
2023-02-11T10:31:30.867Z,368.00
2023-02-11T10:32:30.654Z,356.00
2023-02-11T10:33:30.651Z,372.00
2023-02-11T10:34:30.638Z,416.00
2023-02-11T10:35:30.628Z,404.00
2023-02-11T10:36:30.620Z,384.00
2023-02-11T10:37:30.595Z,404.00
2023-02-11T10:38:30.592Z,412.00
2023-02-11T10:39:30.602Z,404.00
2023-02-11T10:40:30.568Z,396.00
2023-02-11T10:41:30.556Z,372.00
2023-02-11T10:42:30.537Z,424.00
2023-02-11T10:43:30.528Z,420.00
2023-02-11T10:44:30.520Z,520.00
2023-02-11T10:45:30.502Z,632.00
2023-02-11T10:46:30.634Z,568.00
2023-02-11T10:47:30.486Z,556.00
2023-02-11T10:48:30.468Z,556.00
2023-02-11T10:49:30.458Z,468.00
2023-02-11T10:50:30.447Z,560.00
2023-02-11T10:51:30.443Z,452.00
2023-02-11T10:52:30.434Z,428.00
2023-02-11T10:53:30.418Z,476.00
2023-02-11T10:54:30.413Z,440.00
2023-02-11T10:55:30.396Z,448.00
2023-02-11T10:56:30.383Z,528.00
2023-02-11T10:57:30.370Z,500.00
2023-02-11T10:58:30.356Z,424.00
2023-02-11T10:59:30.370Z,472.00
2023-02-11T11:00:30.337Z,424.00
2023-02-11T11:01:30.340Z,456.00
2023-02-11T11:02:30.330Z,440.00
2023-02-11T11:03:30.307Z,496.00
2023-02-11T11:04:30.528Z,524.00
2023-02-11T11:05:30.279Z,492.00
2023-02-11T11:06:30.263Z,516.00
2023-02-11T11:07:30.249Z,540.00
2023-02-11T11:08:30.239Z,496.00
2023-02-11T11:09:30.227Z,496.00
2023-02-11T11:10:30.216Z,476.00
2023-02-11T11:11:30.218Z,408.00
2023-02-11T11:12:30.195Z,372.00
2023-02-11T11:13:30.188Z,320.00
2023-02-11T11:14:30.176Z,364.00
2023-02-11T11:15:30.167Z,460.00
2023-02-11T11:16:30.189Z,572.00
2023-02-11T11:17:30.138Z,432.00
2023-02-11T11:18:30.157Z,396.00
2023-02-11T11:19:30.120Z,388.00
2023-02-11T11:20:30.111Z,352.00
2023-02-11T11:21:30.117Z,320.00
2023-02-11T11:22:30.086Z,364.00
2023-02-11T11:23:30.070Z,348.00
2023-02-11T11:24:30.064Z,428.00
2023-02-11T11:25:30.051Z,456.00
2023-02-11T11:26:30.041Z,444.00
2023-02-11T11:27:30.030Z,404.00
2023-02-11T11:28:30.107Z,472.00
2023-02-11T11:29:30.010Z,468.00
2023-02-11T11:30:30.098Z,476.00
2023-02-11T11:31:30.093Z,428.00
2023-02-11T11:32:29.980Z,460.00
2023-02-11T11:33:29.966Z,444.00
2023-02-11T11:34:29.993Z,440.00
2023-02-11T11:35:29.949Z,400.00
2023-02-11T11:36:29.928Z,412.00
2023-02-11T11:37:29.915Z,432.00
2023-02-11T11:38:29.897Z,416.00
2023-02-11T11:39:29.897Z,444.00
2023-02-11T11:40:29.872Z,496.00
2023-02-11T11:41:29.868Z,428.00
2023-02-11T11:42:29.856Z,460.00
2023-02-11T11:43:29.845Z,440.00
2023-02-11T11:44:29.855Z,376.00
2023-02-11T11:45:29.826Z,384.00
2023-02-11T11:46:29.886Z,388.00
2023-02-11T11:47:29.798Z,408.00
2023-02-11T11:48:29.788Z,420.00
2023-02-11T11:49:29.770Z,388.00
2023-02-11T11:50:29.786Z,400.00
2023-02-11T11:51:29.755Z,472.00
2023-02-11T11:52:29.738Z,460.00
2023-02-11T11:53:29.736Z,428.00
2023-02-11T11:54:29.717Z,480.00
2023-02-11T11:55:29.704Z,460.00
2023-02-11T11:56:29.696Z,576.00
2023-02-11T11:57:29.696Z,572.00
2023-02-11T11:58:29.695Z,500.00
2023-02-11T11:59:29.663Z,440.00
2023-02-11T12:00:29.663Z,432.00
2023-02-11T12:01:29.667Z,492.00
2023-02-11T12:02:29.652Z,532.00
2023-02-11T12:03:29.706Z,480.00
2023-02-11T12:04:29.638Z,376.00
2023-02-11T12:05:29.651Z,332.00
2023-02-11T12:06:29.604Z,364.00
2023-02-11T12:07:29.576Z,416.00
2023-02-11T12:08:29.572Z,380.00
2023-02-11T12:09:29.557Z,468.00
2023-02-11T12:10:29.544Z,440.00
2023-02-11T12:11:29.535Z,480.00
2023-02-11T12:12:29.518Z,568.00
2023-02-11T12:13:29.515Z,660.00
2023-02-11T12:14:29.488Z,516.00
2023-02-11T12:15:29.486Z,516.00
2023-02-11T12:16:29.501Z,540.00
2023-02-11T12:17:29.461Z,476.00
2023-02-11T12:18:29.450Z,436.00
2023-02-11T12:19:29.439Z,432.00
2023-02-11T12:20:29.421Z,484.00
2023-02-11T12:21:29.424Z,432.00
2023-02-11T12:22:29.433Z,484.00
2023-02-11T12:23:29.404Z,508.00
2023-02-11T12:24:29.401Z,492.00
2023-02-11T12:25:29.367Z,448.00
2023-02-11T12:26:29.358Z,456.00
2023-02-11T12:27:29.352Z,448.00
2023-02-11T12:28:29.448Z,492.00
2023-02-11T12:29:29.326Z,484.00
2023-02-11T12:30:29.389Z,508.00
2023-02-11T12:31:29.460Z,456.00
2023-02-11T12:32:29.293Z,452.00
2023-02-11T12:33:29.282Z,556.00
2023-02-11T12:34:29.271Z,540.00
2023-02-11T12:35:29.261Z,472.00
2023-02-11T12:36:29.253Z,460.00
2023-02-11T12:37:29.239Z,508.00
2023-02-11T12:38:29.259Z,608.00
2023-02-11T12:39:29.214Z,512.00
2023-02-11T12:40:29.195Z,512.00
2023-02-11T12:41:29.185Z,568.00
2023-02-11T12:42:29.178Z,460.00
2023-02-11T12:43:29.168Z,428.00
2023-02-11T12:44:29.158Z,464.00
2023-02-11T12:45:29.154Z,428.00
2023-02-11T12:46:29.164Z,468.00
2023-02-11T12:47:29.122Z,492.00
2023-02-11T12:48:29.118Z,416.00
2023-02-11T12:49:29.092Z,372.00
2023-02-11T12:50:29.093Z,368.00
2023-02-11T12:51:29.079Z,364.00
2023-02-11T12:52:29.059Z,440.00
2023-02-11T12:53:29.058Z,544.00
2023-02-11T12:54:29.073Z,796.00